createdAt,value
2019-06-20T00:00:56.794Z,17.80
2019-06-20T00:03:26.867Z,17.90
2019-06-20T00:05:57.041Z,18.00
2019-06-20T00:08:27.107Z,18.00
2019-06-20T00:10:57.195Z,18.00
2019-06-20T00:13:27.303Z,18.10
2019-06-20T00:15:57.397Z,18.20
2019-06-20T00:18:27.483Z,18.30
2019-06-20T00:20:57.600Z,18.40
2019-06-20T00:23:27.675Z,18.50
2019-06-20T00:25:58.869Z,18.50
2019-06-20T00:28:28.950Z,18.60
2019-06-20T00:30:59.039Z,18.60
2019-06-20T00:33:29.101Z,18.70
2019-06-20T00:35:59.211Z,18.80
2019-06-20T00:38:29.290Z,18.80
2019-06-20T00:40:59.383Z,18.70
2019-06-20T00:43:29.462Z,18.60
2019-06-20T00:45:59.571Z,18.60
2019-06-20T00:48:29.647Z,18.60
2019-06-20T00:50:59.766Z,18.60
2019-06-20T00:53:29.850Z,18.60
2019-06-20T00:55:59.950Z,18.60
2019-06-20T00:58:30.007Z,18.60
2019-06-20T01:01:00.115Z,18.60
2019-06-20T01:03:30.181Z,18.60
2019-06-20T01:06:00.290Z,18.60
2019-06-20T01:08:30.359Z,18.60
2019-06-20T01:11:00.454Z,18.60
2019-06-20T01:13:33.924Z,18.60
2019-06-20T01:16:02.279Z,18.60
2019-06-20T01:18:32.359Z,18.50
2019-06-20T01:21:02.644Z,18.40
2019-06-20T01:23:32.726Z,18.30
2019-06-20T01:26:02.824Z,18.30
2019-06-20T01:28:32.895Z,18.20
2019-06-20T01:31:02.997Z,18.10
2019-06-20T01:33:33.112Z,18.10
2019-06-20T01:36:03.198Z,18.00
2019-06-20T01:38:33.266Z,18.00
2019-06-20T01:41:05.989Z,18.00
2019-06-20T01:43:49.535Z,17.90
2019-06-20T01:46:06.794Z,17.90
2019-06-20T01:48:36.882Z,17.80
2019-06-20T01:51:06.980Z,17.70
2019-06-20T01:53:37.066Z,17.70
2019-06-20T01:56:07.169Z,17.60
2019-06-20T01:58:37.265Z,17.60
2019-06-20T02:01:07.369Z,17.50
2019-06-20T02:03:37.484Z,17.40
2019-06-20T02:06:07.599Z,17.30
2019-06-20T02:08:37.670Z,17.30
2019-06-20T02:11:07.779Z,17.20
2019-06-20T02:13:37.871Z,17.20
2019-06-20T02:16:08.057Z,17.10
2019-06-20T02:18:38.139Z,17.10
2019-06-20T02:21:08.231Z,17.10
2019-06-20T02:23:39.378Z,17.10
2019-06-20T02:26:09.487Z,17.00
2019-06-20T02:28:39.578Z,17.00
2019-06-20T02:31:09.667Z,17.00
2019-06-20T02:33:39.794Z,17.00
2019-06-20T02:36:09.902Z,17.10
2019-06-20T02:38:40.011Z,17.00
2019-06-20T02:41:10.131Z,17.10
2019-06-20T02:43:40.242Z,17.10
2019-06-20T02:46:10.542Z,17.10
2019-06-20T02:48:40.637Z,17.00
2019-06-20T02:51:10.723Z,17.00
2019-06-20T02:53:40.851Z,17.00
2019-06-20T02:56:10.945Z,17.00
2019-06-20T02:58:41.072Z,17.10
2019-06-20T03:01:11.170Z,17.20
2019-06-20T03:03:41.281Z,17.40
2019-06-20T03:06:11.381Z,17.30
2019-06-20T03:08:41.496Z,17.30
2019-06-20T03:11:11.565Z,17.30
2019-06-20T03:13:41.719Z,17.30
2019-06-20T03:16:11.819Z,17.20
2019-06-20T03:18:41.915Z,17.20
2019-06-20T03:21:11.999Z,17.10
2019-06-20T03:23:42.107Z,17.00
2019-06-20T03:26:12.195Z,17.00
2019-06-20T03:28:42.299Z,16.90
2019-06-20T03:31:12.399Z,17.00
2019-06-20T03:33:42.534Z,17.00
2019-06-20T03:36:12.620Z,17.00
2019-06-20T03:38:42.735Z,17.00
2019-06-20T03:41:12.794Z,17.00
2019-06-20T03:43:42.885Z,17.00
2019-06-20T03:46:12.959Z,17.00
2019-06-20T03:48:43.092Z,17.00
2019-06-20T03:51:13.163Z,17.30
2019-06-20T03:53:43.270Z,17.40
2019-06-20T03:56:13.350Z,17.70
2019-06-20T03:58:43.447Z,17.90
2019-06-20T04:01:13.533Z,18.00
2019-06-20T04:03:43.626Z,18.10
2019-06-20T04:06:13.703Z,18.10
2019-06-20T04:08:43.827Z,18.30
2019-06-20T04:11:13.978Z,18.30
2019-06-20T04:13:44.136Z,18.40
2019-06-20T04:16:14.217Z,18.40
2019-06-20T04:18:44.342Z,18.40
2019-06-20T04:21:14.436Z,18.40
2019-06-20T04:23:44.575Z,18.50
2019-06-20T04:26:14.643Z,18.80
2019-06-20T04:28:44.739Z,19.30
2019-06-20T04:31:14.806Z,19.70
2019-06-20T04:33:44.904Z,19.60
2019-06-20T04:36:14.992Z,19.50
2019-06-20T04:38:45.230Z,19.50
2019-06-20T04:41:15.335Z,19.50
2019-06-20T04:43:45.423Z,19.70
2019-06-20T04:46:23.847Z,19.70
2019-06-20T04:48:53.934Z,19.90
2019-06-20T04:51:24.010Z,20.50
2019-06-20T04:53:54.115Z,20.90
2019-06-20T04:56:24.199Z,21.40
2019-06-20T04:58:54.314Z,21.80
2019-06-20T05:01:24.398Z,21.80
2019-06-20T05:03:54.527Z,21.90
2019-06-20T05:06:24.694Z,22.20
2019-06-20T05:08:54.779Z,22.80
2019-06-20T05:11:24.872Z,23.60
2019-06-20T05:13:55.001Z,24.30
2019-06-20T05:16:25.095Z,24.90
2019-06-20T05:18:55.191Z,24.80
2019-06-20T05:21:26.006Z,24.10
2019-06-20T05:23:56.124Z,23.20
2019-06-20T05:26:26.216Z,22.40
2019-06-20T05:28:56.338Z,22.00
2019-06-20T05:31:26.415Z,21.50
2019-06-20T05:33:56.534Z,21.20
2019-06-20T05:36:26.651Z,21.00
2019-06-20T05:38:56.763Z,20.90
2019-06-20T05:41:26.855Z,20.70
2019-06-20T05:43:56.949Z,20.50
2019-06-20T05:46:27.043Z,20.50
2019-06-20T05:48:57.159Z,20.40
2019-06-20T05:51:27.762Z,20.30
2019-06-20T05:53:57.859Z,20.00
2019-06-20T05:56:27.955Z,19.90
2019-06-20T05:58:58.049Z,19.70
2019-06-20T06:01:28.154Z,19.50
2019-06-20T06:03:58.212Z,19.00
2019-06-20T06:06:28.292Z,18.80
2019-06-20T06:08:58.406Z,18.70
2019-06-20T06:11:28.495Z,18.60
2019-06-20T06:13:58.615Z,18.50
2019-06-20T06:16:28.734Z,18.40
2019-06-20T06:18:58.834Z,18.40
2019-06-20T06:21:28.939Z,18.20
2019-06-20T06:23:58.996Z,18.10
2019-06-20T06:26:29.111Z,18.10
2019-06-20T06:28:59.183Z,18.10
2019-06-20T06:31:29.299Z,18.20
2019-06-20T06:33:59.403Z,18.30
2019-06-20T06:36:29.505Z,18.60
2019-06-20T06:38:59.608Z,18.80
2019-06-20T06:41:29.708Z,19.10
2019-06-20T06:43:59.773Z,19.30
2019-06-20T06:46:43.000Z,19.40
2019-06-20T06:49:01.551Z,19.60
2019-06-20T06:51:31.687Z,19.80
2019-06-20T06:54:01.831Z,20.10
2019-06-20T06:56:31.923Z,20.10
2019-06-20T06:59:02.040Z,20.10
2019-06-20T07:01:32.175Z,20.20
2019-06-20T07:04:02.258Z,20.30
2019-06-20T07:06:32.351Z,20.40
2019-06-20T07:09:03.114Z,20.50
2019-06-20T07:11:34.321Z,20.50
2019-06-20T07:14:04.499Z,20.70
2019-06-20T07:16:35.609Z,20.70
2019-06-20T07:19:05.808Z,20.80
2019-06-20T07:21:35.980Z,20.80
2019-06-20T07:24:06.098Z,21.00
2019-06-20T07:26:36.213Z,21.20
2019-06-20T07:29:06.285Z,21.20
2019-06-20T07:31:36.418Z,21.30
2019-06-20T07:34:06.511Z,21.50
2019-06-20T07:36:36.614Z,21.60
2019-06-20T07:39:08.318Z,21.60
2019-06-20T07:41:38.433Z,21.50
2019-06-20T07:44:08.528Z,21.50
2019-06-20T07:46:38.649Z,21.60
2019-06-20T07:49:08.702Z,21.70
2019-06-20T07:51:38.799Z,21.90
2019-06-20T07:54:08.862Z,21.90
2019-06-20T07:56:39.011Z,22.00
2019-06-20T07:59:09.081Z,22.10
2019-06-20T08:01:39.187Z,22.10
2019-06-20T08:04:09.279Z,22.20
2019-06-20T08:06:39.378Z,22.60
2019-06-20T08:09:09.603Z,23.20
2019-06-20T08:11:39.699Z,24.00
2019-06-20T08:14:09.803Z,24.80
2019-06-20T08:16:39.911Z,26.90
2019-06-20T08:19:10.019Z,29.70
2019-06-20T08:21:44.052Z,31.80
2019-06-20T08:24:12.923Z,32.70
2019-06-20T08:26:43.037Z,33.70
2019-06-20T08:29:20.817Z,34.10
2019-06-20T08:31:44.969Z,34.80
2019-06-20T08:34:15.023Z,35.70
2019-06-20T08:36:45.117Z,35.90
2019-06-20T08:39:15.195Z,35.70
2019-06-20T08:41:45.302Z,34.00
2019-06-20T08:44:15.389Z,33.00
2019-06-20T08:46:45.494Z,32.80
2019-06-20T08:49:15.579Z,32.30
2019-06-20T08:51:45.691Z,32.60
2019-06-20T08:54:15.887Z,32.60
2019-06-20T08:56:46.026Z,32.70
2019-06-20T08:59:24.309Z,33.50
2019-06-20T09:01:47.888Z,33.90
2019-06-20T09:04:37.072Z,33.80
2019-06-20T09:07:08.230Z,33.40
2019-06-20T09:09:38.307Z,32.30
2019-06-20T09:12:08.410Z,31.40
2019-06-20T09:14:38.551Z,30.80
2019-06-20T09:17:08.797Z,30.80
2019-06-20T09:19:38.850Z,30.90
2019-06-20T09:22:10.030Z,30.90
2019-06-20T09:24:40.095Z,30.60
2019-06-20T09:27:10.190Z,30.40
2019-06-20T09:29:42.036Z,30.40
2019-06-20T09:32:12.010Z,30.30
2019-06-20T09:34:42.130Z,29.90
2019-06-20T09:37:12.236Z,29.80
2019-06-20T09:39:42.303Z,30.20
2019-06-20T09:42:12.394Z,30.70
2019-06-20T09:44:42.461Z,30.90
2019-06-20T09:47:12.576Z,30.90
2019-06-20T09:49:42.661Z,30.50
2019-06-20T09:52:12.784Z,30.70
2019-06-20T09:54:42.886Z,31.50
2019-06-20T09:57:13.010Z,32.50
2019-06-20T09:59:56.109Z,32.70
2019-06-20T10:02:14.806Z,32.50
2019-06-20T10:04:46.104Z,31.70
2019-06-20T10:07:16.603Z,30.90
2019-06-20T10:09:47.093Z,29.90
2019-06-20T10:12:18.317Z,29.50
2019-06-20T10:14:49.511Z,29.30
2019-06-20T10:17:19.763Z,29.50
2019-06-20T10:19:49.877Z,29.30
2019-06-20T10:22:19.999Z,29.50
2019-06-20T10:24:51.228Z,30.30
2019-06-20T10:27:21.405Z,31.50
2019-06-20T10:29:51.487Z,33.40
2019-06-20T10:32:21.599Z,34.60
2019-06-20T10:34:52.722Z,35.50
2019-06-20T10:37:22.838Z,34.90
2019-06-20T10:39:52.937Z,34.90
2019-06-20T10:42:23.023Z,34.10
2019-06-20T10:44:53.122Z,33.10
2019-06-20T10:47:32.406Z,31.80
2019-06-20T10:49:54.930Z,31.40
2019-06-20T10:52:24.999Z,31.10
2019-06-20T10:54:55.106Z,30.50
2019-06-20T10:57:25.187Z,29.70
2019-06-20T10:59:55.326Z,29.00
2019-06-20T11:02:25.370Z,28.80
2019-06-20T11:04:55.446Z,28.50
2019-06-20T11:07:25.517Z,28.70
2019-06-20T11:09:55.620Z,28.60
2019-06-20T11:12:25.696Z,28.50
2019-06-20T11:14:55.818Z,28.60
2019-06-20T11:17:25.887Z,28.80
2019-06-20T11:19:55.991Z,29.00
2019-06-20T11:22:27.145Z,29.30
2019-06-20T11:24:57.350Z,29.10
2019-06-20T11:27:27.413Z,29.00
2019-06-20T11:29:57.556Z,28.80
2019-06-20T11:32:27.646Z,28.70
2019-06-20T11:34:57.786Z,28.40
2019-06-20T11:37:27.890Z,28.70
2019-06-20T11:39:58.009Z,29.00
2019-06-20T11:42:28.071Z,29.20
2019-06-20T11:44:58.239Z,29.10
2019-06-20T11:47:28.345Z,28.80
2019-06-20T11:49:58.495Z,28.50
2019-06-20T11:52:28.566Z,28.50
2019-06-20T11:54:58.662Z,28.60
2019-06-20T11:57:28.960Z,29.30
2019-06-20T11:59:59.067Z,29.90
2019-06-20T12:02:29.145Z,29.80
2019-06-20T12:04:59.247Z,29.50
2019-06-20T12:07:29.316Z,29.40
2019-06-20T12:09:59.435Z,28.70
2019-06-20T12:12:29.523Z,28.70
2019-06-20T12:14:59.681Z,28.60
2019-06-20T12:17:29.762Z,28.60
2019-06-20T12:19:59.854Z,28.50
2019-06-20T12:22:31.002Z,28.50
2019-06-20T12:25:01.085Z,28.30
2019-06-20T12:27:31.152Z,28.20
2019-06-20T12:30:01.255Z,28.00
2019-06-20T12:32:32.398Z,27.60
2019-06-20T12:35:02.498Z,27.50
2019-06-20T12:37:32.593Z,27.70
2019-06-20T12:40:02.659Z,27.80
2019-06-20T12:42:32.723Z,27.90
2019-06-20T12:45:02.838Z,28.00
2019-06-20T12:47:32.898Z,28.10
2019-06-20T12:50:03.003Z,28.10
2019-06-20T12:52:33.083Z,27.90
2019-06-20T12:55:03.174Z,27.90
2019-06-20T12:57:33.238Z,27.80
2019-06-20T13:00:03.402Z,27.70
2019-06-20T13:02:33.497Z,27.60
2019-06-20T13:05:03.613Z,27.40
2019-06-20T13:07:33.869Z,27.40
2019-06-20T13:10:04.602Z,27.60
2019-06-20T13:12:34.672Z,27.90
2019-06-20T13:15:05.163Z,27.90
2019-06-20T13:17:35.532Z,27.60
2019-06-20T13:20:06.079Z,27.60
2019-06-20T13:22:36.169Z,27.80
2019-06-20T13:25:06.501Z,28.20
2019-06-20T13:27:38.130Z,28.50
2019-06-20T13:30:08.611Z,28.70
2019-06-20T13:32:41.177Z,28.90
2019-06-20T13:35:10.734Z,28.90
2019-06-20T13:37:42.029Z,29.00
2019-06-20T13:40:13.235Z,28.80
2019-06-20T13:42:44.122Z,28.50
2019-06-20T13:45:24.094Z,28.40
2019-06-20T13:47:54.147Z,28.30
2019-06-20T13:50:26.522Z,28.50
2019-06-20T13:52:56.593Z,28.60
2019-06-20T13:55:26.700Z,28.70
2019-06-20T13:57:56.845Z,28.80
2019-06-20T14:00:27.371Z,28.50
2019-06-20T14:02:57.455Z,28.20
2019-06-20T14:05:27.527Z,27.90
2019-06-20T14:07:57.682Z,27.80
2019-06-20T14:10:27.791Z,27.70
2019-06-20T14:12:57.876Z,27.60
2019-06-20T14:15:27.970Z,27.70
2019-06-20T14:17:58.044Z,27.50
2019-06-20T14:20:28.226Z,27.00
2019-06-20T14:22:58.281Z,26.90
2019-06-20T14:25:28.374Z,26.60
2019-06-20T14:27:58.437Z,26.70
2019-06-20T14:30:28.723Z,26.70
2019-06-20T14:32:58.827Z,26.70
2019-06-20T14:35:28.875Z,26.80
2019-06-20T14:37:59.525Z,27.10
2019-06-20T14:40:29.617Z,27.60
2019-06-20T14:42:59.689Z,27.70
2019-06-20T14:45:29.735Z,28.10
2019-06-20T14:47:59.939Z,28.50
2019-06-20T14:50:29.995Z,28.20
2019-06-20T14:53:00.095Z,28.30
2019-06-20T14:55:30.187Z,28.60
2019-06-20T14:58:00.282Z,28.70
2019-06-20T15:00:30.459Z,28.50
2019-06-20T15:03:00.547Z,28.10
2019-06-20T15:05:34.734Z,27.40
2019-06-20T15:08:03.158Z,27.20
2019-06-20T15:10:33.243Z,27.10
2019-06-20T15:13:03.333Z,26.50
2019-06-20T15:15:33.427Z,26.50
2019-06-20T15:18:03.514Z,26.80
2019-06-20T15:20:33.576Z,26.90
2019-06-20T15:23:03.711Z,27.00
2019-06-20T15:25:33.798Z,26.80
2019-06-20T15:28:03.901Z,26.80
2019-06-20T15:30:33.981Z,27.00
2019-06-20T15:33:10.030Z,27.50
2019-06-20T15:35:35.806Z,27.50
2019-06-20T15:38:05.917Z,27.20
2019-06-20T15:40:36.084Z,27.30
2019-06-20T15:43:06.121Z,27.30
2019-06-20T15:45:36.228Z,27.40
2019-06-20T15:48:06.340Z,27.50
2019-06-20T15:50:36.423Z,27.70
2019-06-20T15:53:06.530Z,27.60
2019-06-20T15:55:36.626Z,27.40
2019-06-20T15:58:06.687Z,26.90
2019-06-20T16:00:36.758Z,26.60
2019-06-20T16:03:10.289Z,26.30
2019-06-20T16:05:40.557Z,26.10
2019-06-20T16:08:10.395Z,26.00
2019-06-20T16:10:40.439Z,26.00
2019-06-20T16:13:22.420Z,25.90
2019-06-20T16:15:52.502Z,25.80
2019-06-20T16:18:22.570Z,25.80
2019-06-20T16:20:52.665Z,25.90
2019-06-20T16:23:22.754Z,25.80
2019-06-20T16:25:52.825Z,25.80
2019-06-20T16:28:22.923Z,25.60
2019-06-20T16:31:07.933Z,25.60
2019-06-20T16:33:25.848Z,25.50
2019-06-20T16:35:56.134Z,25.40
2019-06-20T16:38:26.250Z,25.20
2019-06-20T16:40:56.362Z,25.20
2019-06-20T16:43:26.445Z,25.10
2019-06-20T16:45:56.554Z,25.10
2019-06-20T16:48:26.624Z,25.10
2019-06-20T16:50:56.705Z,25.10
2019-06-20T16:53:26.823Z,25.00
2019-06-20T16:55:56.948Z,25.10
2019-06-20T16:58:27.039Z,25.20
2019-06-20T17:00:57.152Z,25.10
2019-06-20T17:03:40.666Z,25.10
2019-06-20T17:05:59.021Z,25.10
2019-06-20T17:08:29.142Z,25.10
2019-06-20T17:10:59.231Z,25.00
2019-06-20T17:13:29.362Z,25.00
2019-06-20T17:15:59.419Z,24.90
2019-06-20T17:18:29.535Z,24.70
2019-06-20T17:20:59.619Z,24.70
2019-06-20T17:23:29.723Z,24.60
2019-06-20T17:26:01.574Z,24.60
2019-06-20T17:28:31.511Z,24.60
2019-06-20T17:31:01.602Z,24.60
2019-06-20T17:33:32.786Z,24.60
2019-06-20T17:36:17.340Z,24.60
2019-06-20T17:38:34.787Z,24.40
2019-06-20T17:41:05.171Z,24.30
2019-06-20T17:43:35.258Z,24.20
2019-06-20T17:46:05.373Z,24.10
2019-06-20T17:48:35.513Z,23.90
2019-06-20T17:51:05.553Z,23.70
2019-06-20T17:53:35.671Z,23.60
2019-06-20T17:56:05.903Z,23.50
2019-06-20T17:58:36.028Z,23.30
2019-06-20T18:01:06.113Z,23.20
2019-06-20T18:03:36.204Z,22.80
2019-06-20T18:06:06.314Z,22.70
2019-06-20T18:08:36.387Z,22.50
2019-06-20T18:11:06.484Z,22.40
2019-06-20T18:13:36.587Z,22.30
2019-06-20T18:16:06.723Z,22.10
2019-06-20T18:18:36.819Z,22.00
2019-06-20T18:21:06.954Z,21.90
2019-06-20T18:23:36.996Z,21.80
2019-06-20T18:26:07.100Z,21.70
2019-06-20T18:28:37.195Z,21.60
2019-06-20T18:31:07.310Z,21.50
2019-06-20T18:33:37.411Z,21.40
2019-06-20T18:36:07.506Z,21.30
2019-06-20T18:38:37.571Z,21.30
2019-06-20T18:41:07.703Z,21.10
2019-06-20T18:43:37.795Z,21.10
2019-06-20T18:46:07.907Z,20.90
2019-06-20T18:48:37.974Z,20.90
2019-06-20T18:51:08.075Z,20.80
2019-06-20T18:53:38.172Z,20.70
2019-06-20T18:56:08.260Z,20.60
2019-06-20T18:58:38.333Z,20.60
2019-06-20T19:01:08.439Z,20.50
2019-06-20T19:03:38.527Z,20.40
2019-06-20T19:06:08.647Z,20.30
2019-06-20T19:08:38.757Z,20.20
2019-06-20T19:11:08.850Z,20.20
2019-06-20T19:13:39.028Z,20.10
2019-06-20T19:16:09.122Z,20.00
2019-06-20T19:18:39.225Z,20.00
2019-06-20T19:21:09.314Z,19.90
2019-06-20T19:23:39.455Z,19.80
2019-06-20T19:26:09.545Z,19.70
2019-06-20T19:28:39.624Z,19.60
2019-06-20T19:31:09.706Z,19.40
2019-06-20T19:33:39.802Z,19.30
2019-06-20T19:36:09.923Z,19.30
2019-06-20T19:38:40.025Z,19.20
2019-06-20T19:41:10.113Z,19.10
2019-06-20T19:43:40.191Z,19.10
2019-06-20T19:46:10.302Z,19.00
2019-06-20T19:48:40.373Z,18.90
2019-06-20T19:51:10.482Z,18.90
2019-06-20T19:53:40.547Z,18.80
2019-06-20T19:56:10.674Z,18.70
2019-06-20T19:58:40.750Z,18.70
2019-06-20T20:01:10.838Z,18.70
2019-06-20T20:03:40.917Z,18.70
2019-06-20T20:06:11.012Z,18.70
2019-06-20T20:08:41.095Z,18.70
2019-06-20T20:11:11.195Z,18.70
2019-06-20T20:13:41.265Z,18.70
2019-06-20T20:16:11.395Z,18.70
2019-06-20T20:18:41.481Z,18.70
2019-06-20T20:21:11.570Z,18.70
2019-06-20T20:23:41.663Z,18.70
2019-06-20T20:26:11.743Z,18.70
2019-06-20T20:28:41.830Z,18.70
2019-06-20T20:31:11.907Z,18.60
2019-06-20T20:33:42.003Z,18.60
2019-06-20T20:36:24.443Z,18.50
2019-06-20T20:38:44.803Z,18.50
2019-06-20T20:41:14.885Z,18.50
2019-06-20T20:43:44.981Z,18.50
2019-06-20T20:46:15.160Z,18.50
2019-06-20T20:48:45.270Z,18.50
2019-06-20T20:51:15.396Z,18.40
2019-06-20T20:53:46.725Z,18.30
2019-06-20T20:56:16.804Z,18.20
2019-06-20T20:58:46.937Z,18.00
2019-06-20T21:01:23.205Z,17.90
2019-06-20T21:03:53.311Z,17.70
2019-06-20T21:06:23.405Z,17.60
2019-06-20T21:08:53.514Z,17.40
2019-06-20T21:11:23.655Z,17.30
2019-06-20T21:13:53.768Z,17.20
2019-06-20T21:16:23.826Z,17.00
2019-06-20T21:18:54.898Z,17.00
2019-06-20T21:21:24.991Z,16.80
2019-06-20T21:23:55.091Z,16.70
2019-06-20T21:26:25.178Z,16.60
2019-06-20T21:28:55.286Z,16.60
2019-06-20T21:31:25.360Z,16.50
2019-06-20T21:33:55.462Z,16.40
2019-06-20T21:36:25.529Z,16.30
2019-06-20T21:38:55.616Z,16.20
2019-06-20T21:41:25.692Z,16.20
2019-06-20T21:43:55.767Z,16.10
2019-06-20T21:46:25.825Z,16.00
2019-06-20T21:48:55.913Z,15.90
2019-06-20T21:51:25.964Z,15.80
2019-06-20T21:53:56.074Z,15.80
2019-06-20T21:56:26.140Z,15.80
2019-06-20T21:58:56.217Z,15.80
2019-06-20T22:01:26.339Z,15.70
2019-06-20T22:03:57.593Z,15.60
2019-06-20T22:06:27.671Z,15.60
2019-06-20T22:08:57.734Z,15.50
2019-06-20T22:11:27.830Z,15.50
2019-06-20T22:13:57.979Z,15.40
2019-06-20T22:16:28.352Z,15.40
2019-06-20T22:18:58.424Z,15.30
2019-06-20T22:21:28.503Z,15.20
2019-06-20T22:23:58.570Z,15.10
2019-06-20T22:26:28.666Z,15.10
2019-06-20T22:28:58.731Z,15.00
2019-06-20T22:31:28.853Z,15.00
2019-06-20T22:33:58.923Z,14.90
2019-06-20T22:36:39.695Z,14.90
2019-06-20T22:39:01.761Z,14.90
2019-06-20T22:41:33.479Z,14.90
2019-06-20T22:44:03.543Z,14.90
2019-06-20T22:46:33.639Z,14.80
2019-06-20T22:49:03.724Z,14.80
2019-06-20T22:51:35.846Z,14.80
2019-06-20T22:54:05.923Z,14.70
2019-06-20T22:56:36.042Z,14.70
2019-06-20T22:59:06.129Z,14.60
2019-06-20T23:01:36.229Z,14.60
2019-06-20T23:04:06.308Z,14.60
2019-06-20T23:06:36.403Z,14.60
2019-06-20T23:09:07.715Z,14.60
2019-06-20T23:11:37.827Z,14.60
2019-06-20T23:14:07.929Z,14.60
2019-06-20T23:16:38.028Z,14.60
2019-06-20T23:19:08.111Z,14.60
2019-06-20T23:21:38.210Z,14.60
2019-06-20T23:24:08.280Z,14.60
2019-06-20T23:26:38.675Z,14.60
2019-06-20T23:29:23.912Z,14.50
2019-06-20T23:31:54.716Z,14.50
2019-06-20T23:34:24.959Z,14.50
2019-06-20T23:36:55.041Z,14.50
2019-06-20T23:39:28.191Z,14.40
2019-06-20T23:41:56.879Z,14.30
2019-06-20T23:44:26.955Z,14.30
2019-06-20T23:46:57.075Z,14.20
2019-06-20T23:49:27.183Z,14.20
2019-06-20T23:52:02.331Z,14.20
2019-06-20T23:54:32.411Z,14.30
2019-06-20T23:57:02.556Z,14.30
2019-06-20T23:59:32.610Z,14.40
